Curdsville, Kentucky
Current Conditions -  °F | °C
As of 7:56 AM on Sunday 23 Nov 2014 (Local Time) from KOWB Reporting Station
Overcast Overcast  
Wind Chill: 51°   Ceiling: 3600
Heat Index: 51°   Visibility: 10mi
Dew Point: 46°   Wind: 9mph
Humidity: 83%   Direction: 130°SE
Pressure: 29.86"   Gusts: NA
Location:  37.73°N, 87.33°W
Report Text: KOWB 231356Z 13008KT 10SM SCT029 OVC036 11/08 A2986 RMK AO2 T01050077 RAE56 P0001 SLP110
Loading
Personal Weather Stations






























Interactive Weather Map New forecast layout! Learn more

10-Day Weather Forecast

Advertisements
Track Severe Weather on mobile